createdAt,value
2023-04-15T00:01:54.951Z,29.27
2023-04-15T00:04:22.942Z,31.40
2023-04-15T00:06:54.694Z,32.73
2023-04-15T00:09:24.052Z,30.10
2023-04-15T00:11:52.588Z,29.37
2023-04-15T00:14:20.364Z,33.93
2023-04-15T00:16:50.074Z,34.27
2023-04-15T00:19:17.913Z,31.37
2023-04-15T00:21:45.854Z,31.40
2023-04-15T00:24:13.759Z,29.33
2023-04-15T00:26:42.986Z,31.73
2023-04-15T00:29:10.702Z,34.10
2023-04-15T00:31:38.480Z,32.83
2023-04-15T00:34:06.340Z,35.47
2023-04-15T00:36:35.121Z,32.70
2023-04-15T00:39:03.272Z,32.50
2023-04-15T00:41:31.734Z,37.87
2023-04-15T00:44:02.310Z,34.97
2023-04-15T00:46:32.112Z,37.80
2023-04-15T00:49:00.005Z,40.87
2023-04-15T00:51:28.074Z,37.47
2023-04-15T00:53:55.974Z,38.13
2023-04-15T00:56:25.411Z,39.87
2023-04-15T00:58:53.356Z,40.43
2023-04-15T01:01:23.425Z,39.83
2023-04-15T01:03:51.924Z,41.53
2023-04-15T01:06:19.917Z,42.93
2023-04-15T01:08:47.626Z,46.17
2023-04-15T01:11:16.759Z,46.40
2023-04-15T01:13:44.715Z,46.20
2023-04-15T01:16:13.299Z,46.87
2023-04-15T01:18:42.876Z,47.47
2023-04-15T01:21:10.964Z,48.27
2023-04-15T01:23:39.602Z,48.63
2023-04-15T01:26:09.402Z,49.03
2023-04-15T01:28:38.447Z,47.60
2023-04-15T01:31:08.528Z,47.10
2023-04-15T01:33:36.651Z,49.77
2023-04-15T01:36:05.154Z,51.80
2023-04-15T01:38:33.621Z,57.37
2023-04-15T01:41:01.456Z,51.70
2023-04-15T01:43:30.580Z,51.43
2023-04-15T01:45:58.429Z,49.97
2023-04-15T01:48:27.371Z,56.83
2023-04-15T01:50:57.544Z,54.17
2023-04-15T01:53:25.948Z,51.67
2023-04-15T01:55:54.198Z,56.33
2023-04-15T01:58:22.601Z,56.43
2023-04-15T02:00:51.807Z,56.80
2023-04-15T02:03:20.096Z,55.17
2023-04-15T02:05:47.873Z,54.00
2023-04-15T02:08:15.634Z,54.33
2023-04-15T02:10:43.522Z,56.67
2023-04-15T02:13:11.718Z,58.87
2023-04-15T02:15:39.623Z,51.67
2023-04-15T02:18:08.659Z,53.00
2023-04-15T02:20:37.967Z,51.07
2023-04-15T02:23:07.406Z,55.27
2023-04-15T02:25:35.130Z,53.63
2023-04-15T02:28:02.947Z,55.70
2023-04-15T02:30:30.826Z,52.43
2023-04-15T02:32:58.651Z,50.33
2023-04-15T02:35:28.270Z,49.73
2023-04-15T02:37:56.187Z,49.00
2023-04-15T02:40:24.051Z,54.87
2023-04-15T02:42:51.944Z,51.33
2023-04-15T02:45:23.656Z,53.05
2023-04-15T02:47:51.547Z,52.50
2023-04-15T02:50:19.416Z,50.63
2023-04-15T02:52:48.527Z,50.53
2023-04-15T02:55:18.041Z,48.40
2023-04-15T02:57:45.916Z,50.80
2023-04-15T03:00:15.023Z,48.67
2023-04-15T03:02:43.232Z,46.53
2023-04-15T03:05:13.966Z,48.53
2023-04-15T03:07:41.753Z,48.40
2023-04-15T03:10:12.067Z,53.87
2023-04-15T03:12:40.688Z,48.77
2023-04-15T03:15:10.032Z,48.43
2023-04-15T03:17:37.740Z,49.63
2023-04-15T03:20:07.163Z,47.60
2023-04-15T03:22:35.197Z,53.73
2023-04-15T03:25:03.274Z,50.23
2023-04-15T03:27:32.461Z,49.70
2023-04-15T03:30:00.452Z,52.33
2023-04-15T03:32:28.308Z,47.37
2023-04-15T03:34:56.155Z,51.33
2023-04-15T03:37:23.900Z,52.10
2023-04-15T03:39:51.695Z,48.63
2023-04-15T03:42:19.447Z,50.20
2023-04-15T03:44:48.647Z,50.23
2023-04-15T03:47:16.399Z,46.90
2023-04-15T03:49:44.210Z,48.40
2023-04-15T03:52:12.020Z,45.50
2023-04-15T03:54:39.780Z,45.87
2023-04-15T03:57:07.701Z,49.37
2023-04-15T03:59:35.561Z,48.80
2023-04-15T04:02:04.830Z,45.93
2023-04-15T04:04:32.816Z,47.83
2023-04-15T04:07:00.730Z,51.90
2023-04-15T04:09:28.826Z,45.07
2023-04-15T04:11:56.929Z,48.30
2023-04-15T04:14:29.656Z,46.67
2023-04-15T04:16:57.820Z,45.07
2023-04-15T04:19:27.062Z,45.77
2023-04-15T04:21:54.973Z,40.90
2023-04-15T04:24:22.772Z,42.27
2023-04-15T04:26:50.521Z,42.13
2023-04-15T04:29:18.372Z,39.97
2023-04-15T04:31:46.916Z,44.03
2023-04-15T04:34:14.758Z,43.03
2023-04-15T04:36:44.397Z,42.97
2023-04-15T04:39:12.184Z,41.87
2023-04-15T04:41:39.950Z,41.00
2023-04-15T04:44:07.952Z,39.77
2023-04-15T04:46:35.832Z,36.33
2023-04-15T04:49:03.921Z,42.57
2023-04-15T04:51:32.574Z,37.57
2023-04-15T04:54:03.541Z,37.93
2023-04-15T04:56:31.560Z,38.90
2023-04-15T04:58:59.560Z,39.33
2023-04-15T05:01:27.813Z,35.40
2023-04-15T05:03:56.081Z,37.73
2023-04-15T05:06:24.036Z,35.57
2023-04-15T05:08:52.087Z,36.67
2023-04-15T05:11:21.384Z,35.27
2023-04-15T05:13:49.293Z,36.93
2023-04-15T05:16:17.358Z,34.97
2023-04-15T05:18:45.501Z,34.43
2023-04-15T05:21:14.421Z,33.40
2023-04-15T05:23:42.417Z,30.07
2023-04-15T05:26:10.430Z,30.90
2023-04-15T05:28:39.501Z,31.57
2023-04-15T05:31:07.587Z,33.63
2023-04-15T05:33:35.705Z,28.30
2023-04-15T05:36:03.614Z,31.07
2023-04-15T05:38:31.440Z,29.13
2023-04-15T05:40:59.209Z,29.77
2023-04-15T05:43:26.968Z,30.97
2023-04-15T05:45:56.559Z,28.37
2023-04-15T05:48:24.508Z,26.35
2023-04-15T05:50:52.454Z,25.20
2023-04-15T05:53:20.685Z,21.87
2023-04-15T05:55:48.417Z,27.02
2023-04-15T05:58:16.172Z,21.93
2023-04-15T06:00:44.705Z,21.03
2023-04-15T06:03:13.988Z,23.17
2023-04-15T06:05:41.816Z,22.60
2023-04-15T06:08:09.712Z,20.23
2023-04-15T06:10:37.786Z,23.50
2023-04-15T06:13:05.764Z,20.27
2023-04-15T06:15:33.857Z,21.10
2023-04-15T06:18:01.651Z,20.90
2023-04-15T06:20:30.866Z,22.90
2023-04-15T06:22:58.697Z,20.20
2023-04-15T06:25:26.673Z,19.92
2023-04-15T06:27:54.598Z,21.92
2023-04-15T06:30:24.330Z,18.95
2023-04-15T06:32:52.839Z,18.15
2023-04-15T06:35:20.951Z,21.50
2023-04-15T06:37:50.034Z,19.55
2023-04-15T06:40:17.879Z,17.90
2023-04-15T06:42:45.645Z,18.73
2023-04-15T06:45:13.351Z,16.25
2023-04-15T06:47:41.914Z,16.95
2023-04-15T06:50:11.527Z,20.85
2023-04-15T06:52:39.502Z,15.50
2023-04-15T06:55:10.032Z,14.70
2023-04-15T06:57:37.842Z,13.35
2023-04-15T07:00:07.389Z,15.05
2023-04-15T07:02:35.566Z,14.60
2023-04-15T07:05:03.486Z,12.23
2023-04-15T07:07:31.717Z,14.25
2023-04-15T07:09:59.884Z,12.57
2023-04-15T07:12:29.137Z,12.32
2023-04-15T07:14:56.911Z,12.82
2023-04-15T07:17:24.937Z,11.70
2023-04-15T07:19:52.752Z,15.15
2023-04-15T07:22:20.524Z,10.88
2023-04-15T07:24:48.283Z,14.10
2023-04-15T07:27:16.386Z,13.05
2023-04-15T07:29:45.668Z,11.35
2023-04-15T07:32:13.329Z,15.05
2023-04-15T07:34:41.563Z,14.40
2023-04-15T07:37:09.368Z,13.82
2023-04-15T07:39:37.252Z,14.93
2023-04-15T07:42:05.352Z,14.35
2023-04-15T07:44:33.328Z,14.60
2023-04-15T07:47:03.940Z,13.57
2023-04-15T07:52:00.267Z,15.23
2023-04-15T07:54:28.559Z,15.63
2023-04-15T07:56:57.283Z,13.90
2023-04-15T07:59:25.221Z,13.18
2023-04-15T08:01:53.193Z,17.35
2023-04-15T08:04:22.792Z,16.65
2023-04-15T08:06:50.675Z,15.52
2023-04-15T08:09:18.482Z,13.80
2023-04-15T08:11:46.562Z,15.60
2023-04-15T08:14:14.417Z,15.95
2023-04-15T08:16:42.482Z,15.43
2023-04-15T08:19:10.430Z,15.30
2023-04-15T08:21:40.632Z,15.40
2023-04-15T08:24:08.388Z,14.98
2023-04-15T08:26:36.345Z,13.18
2023-04-15T08:29:04.364Z,17.83
2023-04-15T08:31:32.334Z,19.08
2023-04-15T08:34:00.305Z,13.07
2023-04-15T08:36:28.464Z,20.25
2023-04-15T08:38:57.627Z,14.27
2023-04-15T08:41:27.227Z,13.48
2023-04-15T08:43:58.316Z,13.75
2023-04-15T08:46:26.687Z,14.63
2023-04-15T08:48:58.602Z,15.05
2023-04-15T08:51:27.220Z,16.55
2023-04-15T08:53:55.534Z,14.60
2023-04-15T08:56:27.171Z,14.93
2023-04-15T08:58:56.052Z,17.25
2023-04-15T09:01:24.293Z,15.52
2023-04-15T09:03:52.838Z,15.20
2023-04-15T09:06:21.610Z,15.02
2023-04-15T09:08:49.425Z,15.68
2023-04-15T09:11:20.006Z,13.68
2023-04-15T09:13:50.282Z,15.40
2023-04-15T09:16:18.844Z,14.63
2023-04-15T09:18:46.953Z,15.10
2023-04-15T09:21:16.093Z,14.32
2023-04-15T09:23:58.628Z,15.18
2023-04-15T09:26:34.524Z,15.07
2023-04-15T09:29:10.265Z,16.73
2023-04-15T09:31:38.624Z,14.68
2023-04-15T09:34:06.935Z,15.93
2023-04-15T09:36:53.409Z,15.13
2023-04-15T09:39:21.446Z,14.52
2023-04-15T09:42:04.879Z,13.65
2023-04-15T09:44:34.296Z,13.98
2023-04-15T09:47:02.350Z,13.40
2023-04-15T09:49:30.391Z,16.70
2023-04-15T09:52:05.762Z,15.35
2023-04-15T09:54:36.324Z,15.75
2023-04-15T09:57:08.370Z,13.63
2023-04-15T09:59:37.578Z,14.30
2023-04-15T10:02:07.646Z,15.40
2023-04-15T10:04:40.842Z,16.75
2023-04-15T10:07:10.574Z,15.68
2023-04-15T10:09:40.151Z,15.40
2023-04-15T10:12:08.006Z,15.70
2023-04-15T10:14:39.072Z,13.98
2023-04-15T10:17:08.961Z,15.73
2023-04-15T10:19:38.560Z,14.93
2023-04-15T10:22:07.547Z,15.68
2023-04-15T10:24:35.500Z,14.38
2023-04-15T10:27:05.363Z,16.30
2023-04-15T10:29:33.250Z,14.63
2023-04-15T10:32:03.304Z,16.25
2023-04-15T10:34:31.886Z,16.25
2023-04-15T10:37:03.852Z,15.85
2023-04-15T10:39:42.857Z,17.02
2023-04-15T10:42:12.637Z,15.20
2023-04-15T10:44:40.931Z,16.17
2023-04-15T10:47:13.694Z,18.00
2023-04-15T10:49:46.440Z,19.27
2023-04-15T10:52:15.949Z,18.08
2023-04-15T10:54:43.797Z,16.65
2023-04-15T10:57:17.073Z,18.08
2023-04-15T11:00:13.557Z,16.48
2023-04-15T11:02:48.241Z,16.55
2023-04-15T11:05:17.251Z,17.00
2023-04-15T11:07:56.140Z,19.60
2023-04-15T11:10:56.583Z,19.60
2023-04-15T11:13:31.806Z,20.15
2023-04-15T11:16:01.823Z,17.73
2023-04-15T11:18:33.092Z,18.25
2023-04-15T11:21:03.447Z,18.02
2023-04-15T11:23:34.149Z,19.02
2023-04-15T11:26:03.356Z,16.77
2023-04-15T11:28:32.628Z,20.20
2023-04-15T11:31:08.480Z,20.80
2023-04-15T11:33:38.016Z,22.02
2023-04-15T11:36:06.101Z,21.40
2023-04-15T11:38:35.748Z,20.08
2023-04-15T11:41:03.530Z,20.08
2023-04-15T11:43:35.361Z,20.83
2023-04-15T11:46:04.890Z,21.80
2023-04-15T11:48:34.699Z,22.17
2023-04-15T11:51:05.914Z,18.92
2023-04-15T11:53:41.502Z,21.55
2023-04-15T11:56:11.046Z,19.77
2023-04-15T11:58:39.884Z,19.98
2023-04-15T12:01:08.406Z,17.77
2023-04-15T12:03:42.374Z,17.10
2023-04-15T12:06:19.125Z,21.90
2023-04-15T12:08:52.686Z,17.75
2023-04-15T12:11:21.037Z,20.85
2023-04-15T12:13:50.110Z,17.50
2023-04-15T12:16:19.400Z,17.35
2023-04-15T12:18:48.376Z,18.83
2023-04-15T12:21:20.688Z,19.90
2023-04-15T12:23:52.373Z,18.30
2023-04-15T12:26:28.246Z,20.23
2023-04-15T12:28:57.055Z,18.90
2023-04-15T12:31:25.497Z,19.45
2023-04-15T12:33:55.895Z,20.80
2023-04-15T12:36:25.396Z,18.63
2023-04-15T12:38:53.392Z,23.00
2023-04-15T12:41:21.814Z,20.20
2023-04-15T12:43:49.656Z,19.85
2023-04-15T12:46:17.535Z,20.45
2023-04-15T12:48:45.751Z,22.83
2023-04-15T12:51:13.550Z,23.85
2023-04-15T12:53:42.717Z,20.30
2023-04-15T12:56:10.649Z,22.67
2023-04-15T12:58:38.378Z,19.85
2023-04-15T13:01:06.694Z,20.05
2023-04-15T13:03:34.647Z,19.85
2023-04-15T13:06:04.670Z,21.48
2023-04-15T13:08:32.583Z,19.95
2023-04-15T13:11:01.825Z,18.33
2023-04-15T13:13:31.875Z,18.30
2023-04-15T13:15:59.696Z,19.20
2023-04-15T13:18:27.529Z,17.77
2023-04-15T13:20:56.663Z,19.15
2023-04-15T13:23:24.516Z,17.00
2023-04-15T13:25:52.274Z,17.88
2023-04-15T13:28:21.724Z,17.90
2023-04-15T13:30:49.540Z,17.95
2023-04-15T13:33:18.320Z,18.67
2023-04-15T13:35:46.374Z,19.60
2023-04-15T13:38:14.205Z,17.95
2023-04-15T13:40:41.914Z,20.98
2023-04-15T13:43:09.709Z,18.90
2023-04-15T13:45:39.176Z,17.83
2023-04-15T13:48:07.495Z,15.98
2023-04-15T13:50:35.263Z,18.40
2023-04-15T13:53:03.035Z,19.35
2023-04-15T13:55:31.007Z,14.55
2023-04-15T13:57:58.784Z,15.45
2023-04-15T14:00:26.539Z,18.25
2023-04-15T14:02:55.812Z,15.43
2023-04-15T14:05:23.705Z,16.13
2023-04-15T14:07:51.424Z,17.27
2023-04-15T14:10:19.253Z,18.02
2023-04-15T14:12:47.002Z,13.73
2023-04-15T14:15:15.029Z,15.70
2023-04-15T14:17:43.407Z,15.02
2023-04-15T14:20:15.012Z,13.02
2023-04-15T14:22:44.199Z,13.98
2023-04-15T14:25:20.065Z,14.80
2023-04-15T14:27:55.052Z,14.48
2023-04-15T14:30:22.960Z,14.57
2023-04-15T14:32:50.809Z,13.60
2023-04-15T14:35:20.093Z,13.73
2023-04-15T14:37:47.826Z,12.35
2023-04-15T14:40:15.673Z,11.93
2023-04-15T14:42:43.440Z,14.57
2023-04-15T14:45:11.971Z,12.68
2023-04-15T14:47:39.719Z,14.02
2023-04-15T14:50:08.489Z,11.93
2023-04-15T14:52:39.644Z,13.98
2023-04-15T14:55:08.794Z,13.20
2023-04-15T14:57:37.134Z,12.98
2023-04-15T15:00:06.950Z,12.40
2023-04-15T15:02:39.816Z,13.95
2023-04-15T15:05:09.134Z,14.95
2023-04-15T15:07:40.722Z,12.02
2023-04-15T15:10:09.496Z,14.43
2023-04-15T15:12:37.356Z,13.55
2023-04-15T15:15:15.734Z,14.15
2023-04-15T15:17:53.216Z,13.98
2023-04-15T15:20:21.051Z,13.77
2023-04-15T15:22:50.284Z,15.45
2023-04-15T15:25:18.471Z,15.57
2023-04-15T15:27:46.434Z,13.55
2023-04-15T15:30:14.315Z,14.70
2023-04-15T15:32:43.075Z,14.20
2023-04-15T15:35:11.542Z,14.95
2023-04-15T15:37:41.851Z,15.32
2023-04-15T15:40:12.688Z,14.13
2023-04-15T15:42:41.947Z,14.68
2023-04-15T15:45:10.487Z,14.90
2023-04-15T15:47:38.825Z,14.98
2023-04-15T15:50:07.782Z,16.88
2023-04-15T15:52:40.276Z,17.20
2023-04-15T15:55:09.103Z,15.30
2023-04-15T15:57:38.441Z,15.02
2023-04-15T16:00:17.829Z,14.50
2023-04-15T16:03:38.018Z,17.38
2023-04-15T16:06:07.504Z,15.40
2023-04-15T16:08:40.626Z,14.27
2023-04-15T16:11:22.612Z,15.45
2023-04-15T16:14:24.991Z,16.70
2023-04-15T16:19:55.540Z,15.05
2023-04-15T16:22:54.585Z,14.82
2023-04-15T16:25:22.460Z,14.98
2023-04-15T16:28:05.906Z,20.02
2023-04-15T16:30:49.568Z,16.10
2023-04-15T16:33:27.008Z,16.08
2023-04-15T16:36:10.068Z,14.75
2023-04-15T16:38:48.288Z,14.05
2023-04-15T16:41:16.712Z,15.52
2023-04-15T16:43:45.914Z,14.07
2023-04-15T16:46:15.555Z,15.30
2023-04-15T16:48:43.450Z,16.92
2023-04-15T16:51:11.433Z,13.93
2023-04-15T16:53:42.936Z,14.65
2023-04-15T16:56:10.834Z,15.55
2023-04-15T16:58:38.780Z,15.45
2023-04-15T17:01:06.698Z,14.35
2023-04-15T17:03:37.026Z,15.30
2023-04-15T17:06:05.130Z,16.02
2023-04-15T17:08:32.973Z,17.25
2023-04-15T17:11:01.056Z,14.55
2023-04-15T17:13:28.951Z,15.95
2023-04-15T17:15:56.736Z,16.98
2023-04-15T17:18:24.546Z,15.27
2023-04-15T17:20:53.875Z,19.88
2023-04-15T17:23:21.782Z,16.75
2023-04-15T17:25:51.382Z,15.68
2023-04-15T17:28:19.144Z,17.08
2023-04-15T17:30:46.999Z,16.38
2023-04-15T17:34:02.959Z,18.42
2023-04-15T17:36:04.677Z,16.73
2023-04-15T17:38:32.650Z,17.83
2023-04-15T17:41:00.888Z,18.52
2023-04-15T17:43:29.220Z,16.33
2023-04-15T17:45:58.547Z,17.08
2023-04-15T17:48:27.044Z,19.83
2023-04-15T17:50:55.092Z,19.65
2023-04-15T17:53:24.420Z,17.77
2023-04-15T17:55:53.806Z,19.85
2023-04-15T17:58:21.628Z,18.42
2023-04-15T18:00:49.816Z,19.02
2023-04-15T18:03:17.819Z,19.67
2023-04-15T18:05:45.821Z,20.35
2023-04-15T18:08:13.589Z,22.42
2023-04-15T18:10:43.660Z,21.50
2023-04-15T18:13:11.599Z,22.45
2023-04-15T18:15:39.586Z,19.15
2023-04-15T18:18:07.349Z,21.67
2023-04-15T18:20:35.548Z,22.70
2023-04-15T18:23:03.718Z,20.95
2023-04-15T18:25:33.889Z,22.60
2023-04-15T18:28:03.777Z,22.65
2023-04-15T18:30:31.509Z,22.10
2023-04-15T18:32:59.321Z,22.90
2023-04-15T18:35:29.818Z,22.90
2023-04-15T18:37:57.838Z,23.70
2023-04-15T18:40:25.789Z,24.60
2023-04-15T18:42:53.811Z,18.98
2023-04-15T18:45:23.099Z,22.23
2023-04-15T18:47:52.256Z,20.97
2023-04-15T18:50:20.438Z,21.98
2023-04-15T18:52:48.191Z,24.67
2023-04-15T18:55:18.510Z,23.13
2023-04-15T18:57:47.376Z,22.88
2023-04-15T19:00:17.147Z,22.20
2023-04-15T19:02:46.621Z,19.88
2023-04-15T19:05:14.611Z,21.30
2023-04-15T19:07:42.477Z,21.42
2023-04-15T19:10:10.841Z,19.48
2023-04-15T19:12:39.971Z,22.63
2023-04-15T19:15:09.021Z,23.35
2023-04-15T19:17:36.928Z,25.55
2023-04-15T19:20:07.356Z,24.42
2023-04-15T19:22:35.267Z,22.58
2023-04-15T19:25:03.492Z,23.58
2023-04-15T19:27:31.340Z,21.95
2023-04-15T19:29:59.528Z,24.98
2023-04-15T19:32:27.355Z,24.50
2023-04-15T19:34:55.168Z,23.98
2023-04-15T19:37:24.565Z,27.60
2023-04-15T19:39:52.557Z,23.65
2023-04-15T19:42:20.463Z,26.52
2023-04-15T19:44:48.330Z,26.45
2023-04-15T19:47:16.413Z,26.80
2023-04-15T19:49:44.511Z,23.67
2023-04-15T19:52:12.306Z,23.92
2023-04-15T19:54:41.643Z,24.80
2023-04-15T19:57:09.508Z,31.05
2023-04-15T19:59:37.737Z,26.88
2023-04-15T20:02:05.621Z,26.13
2023-04-15T20:04:33.919Z,25.25
2023-04-15T20:07:01.899Z,28.63
2023-04-15T20:09:29.733Z,23.20
2023-04-15T20:12:46.793Z,24.85
2023-04-15T20:14:46.562Z,26.50
2023-04-15T20:17:16.021Z,22.83
2023-04-15T20:19:43.853Z,25.38
2023-04-15T20:22:11.847Z,25.10
2023-04-15T20:24:39.524Z,24.95
2023-04-15T20:27:08.959Z,24.87
2023-04-15T20:29:37.709Z,24.25
2023-04-15T20:32:06.730Z,26.80
2023-04-15T20:34:35.084Z,24.75
2023-04-15T20:37:02.869Z,23.58
2023-04-15T20:39:30.818Z,22.95
2023-04-15T20:41:58.563Z,26.55
2023-04-15T20:44:27.598Z,23.63
2023-04-15T20:46:55.519Z,28.10
2023-04-15T20:49:23.392Z,26.05
2023-04-15T20:51:51.425Z,25.35
2023-04-15T20:54:19.532Z,26.52
2023-04-15T20:56:47.291Z,27.77
2023-04-15T20:59:15.245Z,28.05
2023-04-15T21:01:45.736Z,26.80
2023-04-15T21:04:13.636Z,26.80
2023-04-15T21:06:41.479Z,24.40
2023-04-15T21:09:09.292Z,24.33
2023-04-15T21:14:09.168Z,24.73
2023-04-15T21:16:36.959Z,24.95
2023-04-15T21:19:06.405Z,25.27
2023-04-15T21:21:34.568Z,27.80
2023-04-15T21:24:02.473Z,29.63
2023-04-15T21:26:30.332Z,25.40
2023-04-15T21:28:58.045Z,26.80
2023-04-15T21:31:26.120Z,25.63
2023-04-15T21:33:54.066Z,25.13
2023-04-15T21:36:23.250Z,28.33
2023-04-15T21:38:51.245Z,26.77
2023-04-15T21:41:19.049Z,26.63
2023-04-15T21:43:46.808Z,26.95
2023-04-15T21:46:23.943Z,26.70
2023-04-15T21:48:54.125Z,25.47
2023-04-15T21:51:23.382Z,25.65
2023-04-15T21:53:52.506Z,27.73
2023-04-15T21:56:21.592Z,28.88
2023-04-15T21:58:49.327Z,25.75
2023-04-15T22:01:17.166Z,26.75
2023-04-15T22:03:45.293Z,25.85
2023-04-15T22:06:13.805Z,24.85
2023-04-15T22:08:54.913Z,25.08
2023-04-15T22:11:27.179Z,23.52
2023-04-15T22:13:55.738Z,27.20
2023-04-15T22:16:23.565Z,26.42
2023-04-15T22:18:51.365Z,24.30
2023-04-15T22:21:19.126Z,25.00
2023-04-15T22:23:48.753Z,25.80
2023-04-15T22:26:16.705Z,25.73
2023-04-15T22:28:44.512Z,27.33
2023-04-15T22:31:13.669Z,25.85
2023-04-15T22:33:41.459Z,29.92
2023-04-15T22:36:09.274Z,26.90
2023-04-15T22:38:37.102Z,25.67
2023-04-15T22:41:09.276Z,30.37
2023-04-15T22:43:37.068Z,26.40
2023-04-15T22:46:04.811Z,26.02
2023-04-15T22:48:32.666Z,30.27
2023-04-15T22:51:00.529Z,27.15
2023-04-15T22:53:28.412Z,24.80
2023-04-15T22:55:56.349Z,26.83
2023-04-15T22:58:25.643Z,27.92
2023-04-15T23:00:53.549Z,26.88
2023-04-15T23:03:21.598Z,25.53
2023-04-15T23:05:49.505Z,27.97
2023-04-15T23:08:17.411Z,25.63
2023-04-15T23:10:45.360Z,26.80
2023-04-15T23:13:13.352Z,27.67
2023-04-15T23:15:42.793Z,28.73
2023-04-15T23:18:10.733Z,27.73
2023-04-15T23:20:38.737Z,32.33
2023-04-15T23:23:06.911Z,31.38
2023-04-15T23:25:34.686Z,29.03
2023-04-15T23:28:02.521Z,27.17
2023-04-15T23:30:30.804Z,27.15
2023-04-15T23:33:00.182Z,23.33
2023-04-15T23:35:28.251Z,28.03
2023-04-15T23:37:55.989Z,26.45
2023-04-15T23:40:23.812Z,27.25
2023-04-15T23:42:51.767Z,23.70
2023-04-15T23:45:19.661Z,29.85
2023-04-15T23:47:47.497Z,26.77
2023-04-15T23:50:16.676Z,27.02
2023-04-15T23:52:44.406Z,22.52
2023-04-15T23:55:12.228Z,27.60
2023-04-15T23:57:40.422Z,30.15
